sensor_id;sensor_type;location;lat;lon;timestamp;P1;durP1;ratioP1;P2;durP2;ratioP2
20751;SDS011;10536;51.582;5.016;2022-12-07T00:03:14;17.57;;;9.17;;
20751;SDS011;10536;51.582;5.016;2022-12-07T00:08:14;14.53;;;8.80;;
20751;SDS011;10536;51.582;5.016;2022-12-07T00:13:14;13.48;;;8.73;;
20751;SDS011;10536;51.582;5.016;2022-12-07T00:18:15;12.55;;;8.93;;
20751;SDS011;10536;51.582;5.016;2022-12-07T00:23:15;16.53;;;9.43;;
20751;SDS011;10536;51.582;5.016;2022-12-07T00:28:16;20.77;;;9.52;;
20751;SDS011;10536;51.582;5.016;2022-12-07T00:33:16;18.08;;;9.88;;
20751;SDS011;10536;51.582;5.016;2022-12-07T00:38:17;18.47;;;10.17;;
20751;SDS011;10536;51.582;5.016;2022-12-07T00:43:17;16.70;;;9.90;;
20751;SDS011;10536;51.582;5.016;2022-12-07T00:48:17;14.60;;;10.67;;
20751;SDS011;10536;51.582;5.016;2022-12-07T00:53:18;18.75;;;10.98;;
20751;SDS011;10536;51.582;5.016;2022-12-07T00:58:19;18.08;;;11.52;;
20751;SDS011;10536;51.582;5.016;2022-12-07T01:03:19;18.13;;;10.40;;
20751;SDS011;10536;51.582;5.016;2022-12-07T01:08:20;13.98;;;10.15;;
20751;SDS011;10536;51.582;5.016;2022-12-07T01:13:21;15.93;;;10.27;;
20751;SDS011;10536;51.582;5.016;2022-12-07T01:18:22;20.27;;;11.55;;
20751;SDS011;10536;51.582;5.016;2022-12-07T01:23:22;18.60;;;10.30;;
20751;SDS011;10536;51.582;5.016;2022-12-07T01:28:23;15.20;;;10.13;;
20751;SDS011;10536;51.582;5.016;2022-12-07T01:33:24;22.35;;;11.15;;
20751;SDS011;10536;51.582;5.016;2022-12-07T01:38:27;18.48;;;11.38;;
20751;SDS011;10536;51.582;5.016;2022-12-07T01:43:28;17.83;;;10.50;;
20751;SDS011;10536;51.582;5.016;2022-12-07T01:48:38;14.00;;;9.75;;
20751;SDS011;10536;51.582;5.016;2022-12-07T01:53:42;15.75;;;9.40;;
20751;SDS011;10536;51.582;5.016;2022-12-07T01:58:45;14.63;;;8.53;;
20751;SDS011;10536;51.582;5.016;2022-12-07T02:03:47;13.55;;;9.00;;
20751;SDS011;10536;51.582;5.016;2022-12-07T02:08:48;13.68;;;8.15;;
20751;SDS011;10536;51.582;5.016;2022-12-07T02:13:49;16.02;;;7.32;;
20751;SDS011;10536;51.582;5.016;2022-12-07T02:18:59;8.35;;;6.32;;
20751;SDS011;10536;51.582;5.016;2022-12-07T02:24:13;13.13;;;5.35;;
20751;SDS011;10536;51.582;5.016;2022-12-07T02:35:06;23.23;;;7.65;;
20751;SDS011;10536;51.582;5.016;2022-12-07T02:40:21;14.68;;;8.98;;
20751;SDS011;10536;51.582;5.016;2022-12-07T02:45:26;21.50;;;10.85;;
20751;SDS011;10536;51.582;5.016;2022-12-07T02:50:29;16.30;;;10.43;;
20751;SDS011;10536;51.582;5.016;2022-12-07T02:55:37;20.38;;;11.25;;
20751;SDS011;10536;51.582;5.016;2022-12-07T03:00:50;20.40;;;10.60;;
20751;SDS011;10536;51.582;5.016;2022-12-07T03:06:01;22.77;;;11.32;;
20751;SDS011;10536;51.582;5.016;2022-12-07T03:11:13;23.08;;;12.05;;
20751;SDS011;10536;51.582;5.016;2022-12-07T03:16:22;25.70;;;12.80;;
20751;SDS011;10536;51.582;5.016;2022-12-07T03:21:27;27.70;;;14.05;;
20751;SDS011;10536;51.582;5.016;2022-12-07T03:26:36;29.17;;;15.82;;
20751;SDS011;10536;51.582;5.016;2022-12-07T03:31:42;34.40;;;15.73;;
20751;SDS011;10536;51.582;5.016;2022-12-07T03:36:55;29.88;;;15.25;;
20751;SDS011;10536;51.582;5.016;2022-12-07T03:42:01;31.15;;;15.32;;
20751;SDS011;10536;51.582;5.016;2022-12-07T03:47:12;36.00;;;16.63;;
20751;SDS011;10536;51.582;5.016;2022-12-07T03:57:21;37.43;;;17.03;;
20751;SDS011;10536;51.582;5.016;2022-12-07T04:02:24;29.15;;;15.35;;
20751;SDS011;10536;51.582;5.016;2022-12-07T04:07:27;34.92;;;17.55;;
20751;SDS011;10536;51.582;5.016;2022-12-07T04:12:27;34.25;;;18.13;;
20751;SDS011;10536;51.582;5.016;2022-12-07T04:17:28;31.45;;;18.67;;
20751;SDS011;10536;51.582;5.016;2022-12-07T04:22:28;38.80;;;18.80;;
20751;SDS011;10536;51.582;5.016;2022-12-07T04:27:29;38.00;;;18.37;;
20751;SDS011;10536;51.582;5.016;2022-12-07T04:32:29;38.83;;;16.83;;
20751;SDS011;10536;51.582;5.016;2022-12-07T04:37:29;31.07;;;16.20;;
20751;SDS011;10536;51.582;5.016;2022-12-07T04:42:30;38.10;;;17.13;;
20751;SDS011;10536;51.582;5.016;2022-12-07T04:47:31;27.15;;;12.90;;
20751;SDS011;10536;51.582;5.016;2022-12-07T04:52:31;31.88;;;14.95;;
20751;SDS011;10536;51.582;5.016;2022-12-07T04:57:32;35.85;;;14.45;;
20751;SDS011;10536;51.582;5.016;2022-12-07T05:02:32;26.50;;;13.88;;
20751;SDS011;10536;51.582;5.016;2022-12-07T05:07:32;28.43;;;13.13;;
20751;SDS011;10536;51.582;5.016;2022-12-07T05:12:33;21.02;;;11.85;;
20751;SDS011;10536;51.582;5.016;2022-12-07T05:17:33;24.67;;;11.67;;
20751;SDS011;10536;51.582;5.016;2022-12-07T05:22:34;18.02;;;10.60;;
20751;SDS011;10536;51.582;5.016;2022-12-07T05:27:35;30.42;;;11.63;;
20751;SDS011;10536;51.582;5.016;2022-12-07T05:32:35;21.15;;;11.63;;
20751;SDS011;10536;51.582;5.016;2022-12-07T05:37:35;21.20;;;10.52;;
20751;SDS011;10536;51.582;5.016;2022-12-07T05:42:36;24.40;;;11.57;;
20751;SDS011;10536;51.582;5.016;2022-12-07T05:47:38;19.20;;;11.05;;
20751;SDS011;10536;51.582;5.016;2022-12-07T05:52:38;22.23;;;12.07;;
20751;SDS011;10536;51.582;5.016;2022-12-07T05:57:39;20.23;;;11.73;;
20751;SDS011;10536;51.582;5.016;2022-12-07T06:02:39;24.00;;;11.43;;
20751;SDS011;10536;51.582;5.016;2022-12-07T06:07:39;27.83;;;12.37;;
20751;SDS011;10536;51.582;5.016;2022-12-07T06:12:40;25.73;;;12.80;;
20751;SDS011;10536;51.582;5.016;2022-12-07T06:17:42;30.08;;;12.98;;
20751;SDS011;10536;51.582;5.016;2022-12-07T06:22:42;20.37;;;11.43;;
20751;SDS011;10536;51.582;5.016;2022-12-07T06:27:43;17.87;;;12.17;;
20751;SDS011;10536;51.582;5.016;2022-12-07T06:32:43;25.23;;;12.30;;
20751;SDS011;10536;51.582;5.016;2022-12-07T06:37:44;17.67;;;11.05;;
20751;SDS011;10536;51.582;5.016;2022-12-07T06:42:44;18.27;;;10.57;;
20751;SDS011;10536;51.582;5.016;2022-12-07T06:47:44;21.87;;;10.80;;
20751;SDS011;10536;51.582;5.016;2022-12-07T06:52:45;19.93;;;10.87;;
20751;SDS011;10536;51.582;5.016;2022-12-07T06:57:45;30.10;;;13.07;;
20751;SDS011;10536;51.582;5.016;2022-12-07T07:02:46;23.67;;;12.35;;
20751;SDS011;10536;51.582;5.016;2022-12-07T07:07:46;24.60;;;11.95;;
20751;SDS011;10536;51.582;5.016;2022-12-07T07:12:47;36.03;;;17.35;;
20751;SDS011;10536;51.582;5.016;2022-12-07T07:17:48;23.38;;;13.07;;
20751;SDS011;10536;51.582;5.016;2022-12-07T07:22:48;24.13;;;12.80;;
20751;SDS011;10536;51.582;5.016;2022-12-07T07:27:49;26.92;;;12.48;;
20751;SDS011;10536;51.582;5.016;2022-12-07T07:32:49;27.03;;;12.77;;
20751;SDS011;10536;51.582;5.016;2022-12-07T07:37:50;27.95;;;12.75;;
20751;SDS011;10536;51.582;5.016;2022-12-07T07:42:51;22.45;;;11.38;;
20751;SDS011;10536;51.582;5.016;2022-12-07T07:47:53;25.80;;;12.32;;
20751;SDS011;10536;51.582;5.016;2022-12-07T07:52:53;28.52;;;12.18;;
20751;SDS011;10536;51.582;5.016;2022-12-07T07:57:54;28.98;;;13.68;;
20751;SDS011;10536;51.582;5.016;2022-12-07T08:02:55;26.83;;;12.55;;
20751;SDS011;10536;51.582;5.016;2022-12-07T08:07:56;21.90;;;12.48;;
20751;SDS011;10536;51.582;5.016;2022-12-07T08:12:58;24.50;;;12.88;;
